Řízení letového provozu České republiky  
Aktualizace dat:  28.11.2014 21:13:24 UTC English version
   METEO Zobrazení stránky:  28.11.2014 21:18:52 UTC  
vysvětlivky
METAR EDDB 282050Z 08014KT 9999 FEW017 BKN027 M00/M03 Q1022 NOSIG=
METAR EDDC 282050Z 09009KT 9999 OVC016 01/M01 Q1018 NOSIG=
METAR EDDE 282050Z 08007KT 9999 OVC009 01/00 Q1016 NOSIG=
METAR EDDF 282050Z 07009KT 9999 OVC014 05/02 Q1014 NOSIG=
METAR EDDM 282050Z 09009KT 6000 OVC005 01/01 Q1013 NOSIG=
METAR EDDN 282050Z 09007KT 060V130 9000 OVC008 02/00 Q1014 NOSIG=
METAR EDDP 282050Z 07011KT 9999 BKN014 02/00 Q1018 TEMPO BKN015=
METAR EDDT 282050Z 08015KT 9999 FEW017 BKN027 00/M03 Q1022 NOSIG=
METAR EDQM 281650Z 12009KT 1500 BR OVC002 M01/M02 Q1014=
METAR EPBY 282100Z 09006KT 060V120 8000 OVC016 M01/M04 Q1028 =
METAR EPGD 282100Z 13009KT 9999 OVC017 M03/M06 Q1029 =
METAR EPKK 282100Z 07009KT 040V110 7000 BKN012 M02/M03 Q1023 =
METAR EPKT 282100Z 10010KT 7000 BKN011 M02/M04 Q1023 =
METAR EPLL 282100Z 10012KT 8000 OVC010 M02/M04 Q1026 =
METAR COR EPPO 282100Z 10011KT 9999 BKN011 M02/M05 Q1026 =
METAR EPRZ 282100Z 08011KT 9999 SCT015 M04/M05 Q1025 =
METAR EPWA 282100Z 09009KT 9999 FEW013 M03/M05 Q1028 TEMPO BKN013=
METAR EPWR 282100Z 10008KT 8000 BKN013 00/M02 Q1023 =
METAR LHBP 282100Z 06005KT 2400 -DZ BR OVC002 01/00 Q1021 NOSIG=
METAR LHSM 281545Z 08004KT 1500 BR OVC005 03/01 Q1019=
METAR LKCV 282000Z 09005KT 9999 OVC020 03/01 Q1019 NOSIG=
METAR LKKB 282100Z 13006KT 9999 OVC014 02/M01 Q1018 NOSIG=
METAR LKKU NIL
METAR LKKV 282100Z 10010KT 1500 BR OVC002 M01/M01 Q1016 RMK REG QNH 1013=
METAR LKLN 282100Z AUTO 10005KT 9999 OVC009 01/M00 Q1017=
METAR LKMT 282100Z 06006KT 4000 BR OVC009 00/M02 Q1021 NOSIG RMK REG QNH 1013=
METAR LKNA 282100Z 11009KT 0500 -FZDZ FZFG VV000 M00/M01 Q1018=
METAR LKPD 282100Z 09009KT 8000 FEW016 OVC022 02/00 Q1020=
METAR LKPR 282100Z 12010KT 9999 OVC012 01/M01 Q1018 NOSIG RMK REG QNH 1013=
METAR LKTB 282100Z 07009KT 2400 BR SCT006 OVC010 01/00 Q1020 NOSIG RMK REG QNH 1013=
METAR LKVO NIL
METAR LOWI 282050Z 26011KT 230V290 9999 FEW060 SCT250 06/04 Q1012 WS R26 NOSIG=
METAR LOWL 282050Z 09012KT 9999 BKN013 BKN016 02/M00 Q1016 NOSIG=
METAR LOWS 282050Z 30004KT 8000 FEW006 OVC008 03/02 Q1013 NOSIG=
METAR LOWW 282050Z 11009KT 3600 BR FEW002 SCT003 BKN004 01/01 Q1019 NOSIG=
METAR LZIB 282100Z 10007KT 2800 -DZ BR BKN004 OVC006 02/01 Q1020=
METAR LZKZ 282100Z 02009KT 9999 BKN046 01/M02 Q1021=
METAR LZPP 282100Z AUTO 36002KT 5000 BR OVC014/// 02/01 Q1021=
METAR LZSL 282100Z 34002KT 4000 BR SCT016 OVC026 02/00 Q1020=
METAR LZTT 282100Z 29001KT 9999 FEW008 OVC030 M02/M03 Q1020=
METAR LZZI 282100Z 08004KT 9999 OVC032 02/M01 Q1020=